Time;durP1;ratioP1;P1;durP2;ratioP2;P2;SDS_P1;SDS_P2;PMS_P1;PMS_P2;Temp;Humidity;BMP_temperature;BMP_pressure;BME280_temperature;BME280_humidity;BME280_pressure;Samples;Min_cycle;Max_cycle;Signal;HPM_P1;HPM_P2
2023/09/04 00:02:09;;;;;;;3.40;2.20;;;;;;;15.68;85.79;101728.58;105478;1253;83245;-58
2023/09/04 00:04:36;;;;;;;4.50;2.20;;;;;;;15.67;85.78;101722.08;105538;1256;73617;-59
2023/09/04 00:07:03;;;;;;;3.30;1.90;;;;;;;15.67;85.84;101720.85;105467;1256;69186;-58
2023/09/04 00:09:29;;;;;;;5.30;2.20;;;;;;;15.66;85.70;101718.60;105507;1256;69224;-58
2023/09/04 00:11:56;;;;;;;6.10;2.40;;;;;;;15.64;85.58;101719.57;105506;1256;75855;-58
2023/09/04 00:14:23;;;;;;;3.30;2.10;;;;;;;15.60;85.52;101724.43;105502;1256;83649;-59
2023/09/04 00:16:50;;;;;;;5.10;2.10;;;;;;;15.57;85.55;101727.71;105505;1254;72703;-58
2023/09/04 00:19:17;;;;;;;4.00;2.20;;;;;;;15.55;85.66;101736.79;105446;1255;69185;-58
2023/09/04 00:21:44;;;;;;;3.70;2.10;;;;;;;15.52;85.78;101737.44;105520;1256;69121;-58
2023/09/04 00:24:11;;;;;;;3.80;2.10;;;;;;;15.48;85.60;101737.58;105504;1254;75748;-58
2023/09/04 00:26:38;;;;;;;4.90;2.10;;;;;;;15.46;85.92;101735.02;105491;1255;82485;-59
2023/09/04 00:29:05;;;;;;;6.30;2.70;;;;;;;15.44;85.75;101743.71;105493;1254;72700;-58
2023/09/04 00:31:32;;;;;;;3.80;2.30;;;;;;;15.43;85.84;101739.33;105425;1254;69452;-58
2023/09/04 00:33:59;;;;;;;4.20;2.40;;;;;;;15.43;86.02;101740.05;105517;1254;69159;-58
2023/09/04 00:36:26;;;;;;;6.60;2.50;;;;;;;15.43;86.11;101733.55;105524;1253;75732;-59
2023/09/04 00:38:53;;;;;;;3.60;2.40;;;;;;;15.40;86.11;101726.59;105505;1257;83231;-58
2023/09/04 00:41:20;;;;;;;3.40;2.10;;;;;;;15.37;86.18;101728.26;105465;1254;72967;-58
2023/09/04 00:43:47;;;;;;;3.00;2.40;;;;;;;15.35;86.10;101728.19;105458;1253;69160;-58
2023/09/04 00:46:14;;;;;;;3.80;2.40;;;;;;;15.32;86.20;101729.00;105582;1253;69125;-58
2023/09/04 00:48:42;;;;;;;6.40;2.50;;;;;;;15.28;86.17;101735.64;105490;1254;75467;-59
2023/09/04 00:51:10;;;;;;;4.30;2.00;;;;;;;15.25;86.35;101736.98;105479;1254;82283;-58
2023/09/04 00:53:37;;;;;;;5.30;2.50;;;;;;;15.22;86.37;101740.79;105480;1254;72518;-58
2023/09/04 00:56:06;;;;;;;4.80;2.60;;;;;;;15.18;86.50;101745.67;105376;1254;69157;-58
2023/09/04 00:58:34;;;;;;;2.90;2.30;;;;;;;15.15;86.63;101747.35;105415;1254;69329;-59
2023/09/04 01:01:02;;;;;;;4.30;2.40;;;;;;;15.13;86.60;101746.03;105516;1256;75612;-58
2023/09/04 01:03:30;;;;;;;7.90;2.90;;;;;;;15.10;86.62;101749.48;105463;1257;83552;-58
2023/09/04 01:05:59;;;;;;;5.50;2.70;;;;;;;15.06;86.84;101748.19;105539;1254;72682;-57
2023/09/04 01:08:26;;;;;;;3.80;2.70;;;;;;;15.03;86.87;101743.91;105500;1253;69182;-58
2023/09/04 01:11:00;;;;;;;4.00;2.40;;;;;;;14.99;86.88;101745.09;105284;1257;69528;-57
2023/09/04 01:13:37;;;;;;;2.50;2.30;;;;;;;14.96;87.01;101745.73;105528;1253;75465;-57
2023/09/04 01:16:08;;;;;;;4.90;2.50;;;;;;;14.92;87.19;101744.44;105528;1254;83335;-57
2023/09/04 01:18:35;;;;;;;5.70;2.70;;;;;;;14.90;87.22;101743.80;105539;1256;73679;-57
2023/09/04 01:21:05;;;;;;;4.90;2.60;;;;;;;14.89;87.25;101744.56;105497;1256;69722;-57
2023/09/04 01:23:33;;;;;;;3.50;2.40;;;;;;;14.86;87.33;101741.85;105540;1256;69103;-57
2023/09/04 01:26:15;;;;;;;5.30;2.70;;;;;;;14.84;87.32;101742.42;105543;1256;75609;-57
2023/09/04 01:29:14;;;;;;;4.60;2.30;;;;;;;14.80;87.30;101737.30;105443;1253;81991;-57
2023/09/04 01:31:51;;;;;;;3.40;2.30;;;;;;;14.77;87.67;101724.02;105438;1254;71674;-57
2023/09/04 01:34:25;;;;;;;7.20;3.20;;;;;;;14.74;87.68;101720.06;105495;1254;69075;-57
2023/09/04 01:36:53;;;;;;;3.50;2.60;;;;;;;14.72;87.89;101717.48;105485;1254;69120;-57
2023/09/04 01:39:21;;;;;;;3.90;2.60;;;;;;;14.71;87.96;101719.81;105455;1254;75559;-57
2023/09/04 01:41:48;;;;;;;5.20;2.50;;;;;;;14.68;87.78;101724.15;105564;1256;82317;-57
2023/09/04 01:44:15;;;;;;;6.10;2.70;;;;;;;14.64;87.87;101730.26;105532;1254;73557;-57
2023/09/04 01:46:42;;;;;;;5.10;3.00;;;;;;;14.61;87.93;101734.56;105444;1254;69210;-57
2023/09/04 01:49:09;;;;;;;4.80;2.40;;;;;;;14.56;87.86;101729.63;105531;1256;69155;-57
2023/09/04 01:51:36;;;;;;;3.20;2.40;;;;;;;14.53;88.05;101727.27;105501;1256;75598;-57
2023/09/04 01:54:04;;;;;;;6.10;2.80;;;;;;;14.48;88.17;101714.02;105418;1255;82473;-56
2023/09/04 01:56:32;;;;;;;4.60;2.70;;;;;;;14.46;88.34;101708.47;105472;1254;73657;-58
2023/09/04 01:58:59;;;;;;;3.80;3.00;;;;;;;14.41;88.41;101711.60;105517;1256;69176;-57
2023/09/04 02:01:25;;;;;;;4.30;2.40;;;;;;;14.39;88.63;101713.09;105431;1257;69378;-57
2023/09/04 02:03:55;;;;;;;7.00;2.60;;;;;;;14.34;88.67;101720.09;105581;1254;74699;-57
2023/09/04 02:06:24;;;;;;;5.10;2.70;;;;;;;14.29;88.78;101723.23;105525;1254;83412;-58
2023/09/04 02:08:51;;;;;;;4.20;3.00;;;;;;;14.27;89.00;101728.76;105521;1254;72716;-57
2023/09/04 02:11:18;;;;;;;4.30;2.60;;;;;;;14.26;89.18;101728.79;105516;1254;69108;-57
2023/09/04 02:13:49;;;;;;;4.10;2.60;;;;;;;14.26;89.34;101727.55;105542;1254;69163;-57
2023/09/04 02:16:16;;;;;;;4.00;2.50;;;;;;;14.26;89.27;101733.35;105469;1254;75392;-57
2023/09/04 02:18:43;;;;;;;5.90;2.80;;;;;;;14.25;89.28;101736.91;105436;1254;83731;-57
2023/09/04 02:21:10;;;;;;;5.20;2.50;;;;;;;14.25;89.41;101738.84;105468;1253;72719;-57
2023/09/04 02:23:37;;;;;;;4.80;2.70;;;;;;;14.24;89.48;101740.64;105419;1254;69071;-57
2023/09/04 02:26:04;;;;;;;4.50;3.00;;;;;;;14.24;89.59;101738.00;105471;1254;69185;-57
2023/09/04 02:28:30;;;;;;;5.20;2.90;;;;;;;14.23;89.54;101728.52;105494;1254;74551;-58
2023/09/04 02:30:57;;;;;;;4.80;2.80;;;;;;;14.19;89.55;101727.23;105497;1256;83255;-57
2023/09/04 02:33:24;;;;;;;4.00;2.80;;;;;;;14.16;89.64;101722.25;105468;1254;73965;-57
2023/09/04 02:35:52;;;;;;;4.00;2.70;;;;;;;14.15;89.76;101721.59;105463;1256;69120;-57
2023/09/04 02:38:19;;;;;;;4.40;2.80;;;;;;;14.11;89.66;101725.73;105492;1256;69198;-57
2023/09/04 02:40:46;;;;;;;4.50;3.00;;;;;;;14.08;89.75;101727.26;105481;1254;74565;-57
2023/09/04 02:43:13;;;;;;;3.10;2.50;;;;;;;14.03;89.67;101740.05;105488;1254;81397;-57
2023/09/04 02:45:40;;;;;;;4.10;2.60;;;;;;;13.96;89.61;101744.29;105434;1258;73771;-57
2023/09/04 02:48:07;;;;;;;3.90;2.40;;;;;;;13.92;89.77;101745.13;105567;1256;69246;-57
2023/09/04 02:50:35;;;;;;;5.60;2.70;;;;;;;13.86;89.85;101741.05;105614;1254;69502;-57
2023/09/04 02:53:02;;;;;;;4.90;2.90;;;;;;;13.80;89.88;101737.92;105466;1254;75943;-57
2023/09/04 02:55:29;;;;;;;11.60;3.40;;;;;;;13.74;90.04;101739.84;105527;1256;82405;-58
2023/09/04 02:57:57;;;;;;;4.60;2.70;;;;;;;13.70;90.24;101739.09;105472;1254;73610;-57
2023/09/04 03:00:27;;;;;;;13.70;3.20;;;;;;;13.66;90.28;101744.45;105516;1254;69048;-58
2023/09/04 03:02:55;;;;;;;6.50;2.80;;;;;;;13.61;90.32;101743.73;105510;1254;69182;-57
2023/09/04 03:05:25;;;;;;;3.30;2.50;;;;;;;13.57;90.59;101739.63;105592;1254;75519;-57
2023/09/04 03:07:52;;;;;;;7.50;2.70;;;;;;;13.55;90.92;101741.96;105459;1257;83224;-57
2023/09/04 03:10:19;;;;;;;5.40;3.00;;;;;;;13.54;91.00;101740.41;105509;1254;72565;-58
2023/09/04 03:12:46;;;;;;;4.30;3.00;;;;;;;13.53;91.11;101734.64;105586;1256;69174;-58
2023/09/04 03:15:13;;;;;;;5.00;3.20;;;;;;;13.54;91.44;101737.58;105508;1256;69230;-57
2023/09/04 03:17:40;;;;;;;5.00;3.00;;;;;;;13.56;91.51;101742.83;105531;1253;75235;-57
2023/09/04 03:20:09;;;;;;;7.10;2.70;;;;;;;13.57;91.73;101744.36;105432;1254;83357;-57
2023/09/04 03:22:37;;;;;;;4.70;2.90;;;;;;;13.60;91.77;101749.54;105448;1257;72723;-57
2023/09/04 03:25:04;;;;;;;7.00;3.20;;;;;;;13.65;91.94;101756.98;105529;1256;69221;-57
2023/09/04 03:27:32;;;;;;;5.30;3.60;;;;;;;13.67;92.05;101762.70;105507;1254;69132;-57
2023/09/04 03:29:59;;;;;;;5.60;2.80;;;;;;;13.71;92.09;101765.06;105498;1254;75871;-57
2023/09/04 03:32:26;;;;;;;6.70;2.80;;;;;;;13.72;92.00;101765.20;105491;1256;83452;-58
2023/09/04 03:34:54;;;;;;;5.10;2.80;;;;;;;13.73;92.08;101756.58;105524;1253;72793;-57
2023/09/04 03:37:21;;;;;;;6.60;3.20;;;;;;;13.73;92.08;101753.55;105511;1256;69221;-57
2023/09/04 03:39:48;;;;;;;4.30;2.90;;;;;;;13.74;92.12;101748.09;105541;1254;69179;-57
2023/09/04 03:42:15;;;;;;;3.80;3.10;;;;;;;13.75;92.29;101756.34;105499;1254;75652;-57
2023/09/04 03:44:42;;;;;;;4.00;3.10;;;;;;;13.76;92.36;101771.42;105514;1256;83992;-57
2023/09/04 03:47:10;;;;;;;3.70;2.60;;;;;;;13.78;92.42;101777.14;105489;1259;72674;-57
2023/09/04 03:49:36;;;;;;;4.40;2.90;;;;;;;13.80;92.59;101783.76;105495;1256;69671;-57
2023/09/04 03:52:04;;;;;;;6.30;2.90;;;;;;;13.82;92.68;101783.70;105493;1254;69111;-57
2023/09/04 03:54:31;;;;;;;4.00;3.00;;;;;;;13.83;92.44;101778.77;105475;1254;75603;-58
2023/09/04 03:56:58;;;;;;;4.60;3.10;;;;;;;13.83;92.49;101771.92;105467;1256;83457;-57
2023/09/04 03:59:25;;;;;;;4.80;2.80;;;;;;;13.83;92.57;101773.48;105480;1254;73636;-57
2023/09/04 04:01:53;;;;;;;4.60;2.70;;;;;;;13.85;92.69;101777.98;105528;1254;69077;-57
2023/09/04 04:04:20;;;;;;;3.60;2.40;;;;;;;13.86;92.50;101778.16;105472;1259;69536;-57
2023/09/04 04:06:47;;;;;;;5.90;3.00;;;;;;;13.85;92.73;101781.69;105507;1254;75634;-58
2023/09/04 04:09:15;;;;;;;6.80;2.60;;;;;;;13.85;92.64;101789.59;105514;1256;83493;-57
2023/09/04 04:11:43;;;;;;;4.40;2.80;;;;;;;13.83;92.68;101795.64;105475;1254;74051;-56
2023/09/04 04:14:10;;;;;;;6.30;2.80;;;;;;;13.83;92.83;101796.88;105501;1256;69135;-57
2023/09/04 04:16:37;;;;;;;4.20;2.60;;;;;;;13.83;92.87;101804.05;105478;1256;69191;-57
2023/09/04 04:19:05;;;;;;;4.80;3.10;;;;;;;13.84;92.73;101808.95;105574;1254;75044;-57
2023/09/04 04:21:31;;;;;;;4.60;3.10;;;;;;;13.84;92.69;101805.45;105554;1256;82542;-57
2023/09/04 04:23:59;;;;;;;3.20;2.70;;;;;;;13.83;92.88;101808.27;105423;1256;73915;-56
2023/09/04 04:26:27;;;;;;;4.10;2.90;;;;;;;13.84;92.92;101802.96;105565;1254;69168;-58
2023/09/04 04:28:54;;;;;;;4.10;3.00;;;;;;;13.87;92.99;101806.59;105482;1256;69179;-58
2023/09/04 04:31:22;;;;;;;4.20;2.70;;;;;;;13.88;93.03;101804.80;105488;1254;75739;-57
2023/09/04 04:33:49;;;;;;;5.20;3.30;;;;;;;13.89;92.93;101804.09;105513;1256;83202;-58
2023/09/04 04:36:17;;;;;;;4.70;2.80;;;;;;;13.88;92.89;101808.66;105523;1254;72595;-58
2023/09/04 04:38:45;;;;;;;5.60;3.00;;;;;;;13.86;93.07;101813.47;105517;1256;69215;-58
2023/09/04 04:41:13;;;;;;;5.20;3.60;;;;;;;13.87;93.06;101813.45;105496;1256;69224;-57
2023/09/04 04:43:40;;;;;;;5.00;3.10;;;;;;;13.89;93.19;101811.83;105501;1254;75533;-57
2023/09/04 04:46:09;;;;;;;6.80;3.10;;;;;;;13.89;93.21;101807.77;105502;1254;82283;-57
2023/09/04 04:48:36;;;;;;;4.50;3.00;;;;;;;13.89;93.10;101812.86;105463;1254;73437;-57
2023/09/04 04:51:04;;;;;;;4.60;3.30;;;;;;;13.89;93.19;101813.56;105513;1253;69167;-57
2023/09/04 04:53:31;;;;;;;3.90;2.80;;;;;;;13.90;93.13;101824.44;105481;1256;69217;-57
2023/09/04 04:55:59;;;;;;;4.20;3.00;;;;;;;13.90;93.18;101829.16;105592;1254;75883;-56
2023/09/04 04:58:26;;;;;;;4.60;3.30;;;;;;;13.88;93.21;101833.98;105687;1256;83182;-56
2023/09/04 05:00:53;;;;;;;4.80;3.10;;;;;;;13.88;93.22;101837.50;105600;1254;72537;-57
2023/09/04 05:03:21;;;;;;;5.70;3.20;;;;;;;13.88;93.26;101836.08;105516;1254;69150;-55
2023/09/04 05:05:49;;;;;;;5.30;3.50;;;;;;;13.89;93.27;101834.64;105746;1256;69180;-58
2023/09/04 05:08:17;;;;;;;6.00;3.10;;;;;;;13.90;93.37;101828.64;105689;1254;74553;-57
2023/09/04 05:10:44;;;;;;;8.10;3.50;;;;;;;13.93;93.33;101825.92;105648;1254;83368;-55
2023/09/04 05:13:12;;;;;;;7.50;3.60;;;;;;;13.95;93.36;101821.64;105720;1254;72675;-57
2023/09/04 05:15:39;;;;;;;5.20;3.00;;;;;;;13.97;93.64;101822.98;105726;1257;69188;-56
2023/09/04 05:18:07;;;;;;;7.10;3.10;;;;;;;14.01;93.52;101818.84;105537;1257;69205;-57
2023/09/04 05:20:37;;;;;;;5.90;3.60;;;;;;;14.04;93.62;101819.29;105553;1254;75728;-54
2023/09/04 05:23:04;;;;;;;7.00;3.30;;;;;;;14.09;93.79;101818.98;105686;1254;81798;-56
2023/09/04 05:25:31;;;;;;;5.40;3.30;;;;;;;14.12;93.80;101813.06;105607;1254;73544;-58
2023/09/04 05:27:59;;;;;;;5.60;3.40;;;;;;;14.15;93.76;101812.63;105764;1254;69149;-54
2023/09/04 05:30:25;;;;;;;7.00;2.90;;;;;;;14.19;93.91;101815.33;105837;1254;69065;-58
2023/09/04 05:32:53;;;;;;;6.50;3.20;;;;;;;14.23;93.79;101818.55;105842;1254;75577;-57
2023/09/04 05:35:21;;;;;;;7.40;3.60;;;;;;;14.27;93.89;101820.53;105687;1256;83470;-58
2023/09/04 05:37:48;;;;;;;6.40;3.60;;;;;;;14.31;93.87;101816.02;105548;1254;72587;-57
2023/09/04 05:40:15;;;;;;;6.70;3.60;;;;;;;14.35;93.68;101816.61;105642;1254;69156;-57
2023/09/04 05:42:42;;;;;;;5.70;2.70;;;;;;;14.39;93.75;101820.20;105718;1256;69614;-57
2023/09/04 05:45:10;;;;;;;6.80;3.00;;;;;;;14.44;93.82;101825.31;105672;1254;75751;-57
2023/09/04 05:47:37;;;;;;;7.70;3.40;;;;;;;14.49;93.80;101832.88;105853;1255;83749;-57
2023/09/04 05:50:05;;;;;;;5.30;3.00;;;;;;;14.55;93.76;101827.48;105648;1251;73972;-56
2023/09/04 05:52:32;;;;;;;7.10;3.10;;;;;;;14.61;93.84;101829.21;105710;1254;69158;-57
2023/09/04 05:54:58;;;;;;;8.60;3.40;;;;;;;14.67;93.67;101823.73;105636;1256;70511;-57
2023/09/04 05:57:25;;;;;;;6.00;3.00;;;;;;;14.74;93.69;101823.89;105624;1255;74568;-58
2023/09/04 05:59:52;;;;;;;5.10;2.90;;;;;;;14.81;93.62;101822.27;105490;1254;82475;-58
2023/09/04 06:02:20;;;;;;;4.70;2.60;;;;;;;14.86;93.50;101821.72;105524;1256;73612;-57
2023/09/04 06:04:47;;;;;;;5.10;2.90;;;;;;;14.93;93.37;101819.39;105523;1256;69358;-57
2023/09/04 06:07:15;;;;;;;5.60;3.10;;;;;;;14.99;93.34;101821.66;105589;1256;69164;-58
2023/09/04 06:09:43;;;;;;;4.20;3.00;;;;;;;15.05;93.22;101819.35;105619;1254;75524;-58
2023/09/04 06:12:12;;;;;;;3.80;2.60;;;;;;;15.11;93.04;101812.46;105575;1255;83241;-58
2023/09/04 06:14:40;;;;;;;4.30;2.30;;;;;;;15.17;92.97;101816.66;105656;1255;72609;-59
2023/09/04 06:17:07;;;;;;;5.50;2.80;;;;;;;15.22;92.86;101821.95;105601;1255;69128;-58
2023/09/04 06:19:34;;;;;;;5.70;2.80;;;;;;;15.28;92.77;101827.58;105571;1257;69185;-58
2023/09/04 06:22:01;;;;;;;5.00;2.90;;;;;;;15.34;92.68;101830.37;105543;1254;74499;-58
2023/09/04 06:24:28;;;;;;;8.20;2.40;;;;;;;15.41;92.72;101836.64;105581;1256;83371;-58
2023/09/04 06:26:55;;;;;;;5.10;2.10;;;;;;;15.49;92.79;101837.79;105601;1254;73642;-56
2023/09/04 06:29:22;;;;;;;5.60;2.30;;;;;;;15.56;92.60;101835.58;105591;1256;69156;-56
2023/09/04 06:31:49;;;;;;;4.70;2.50;;;;;;;15.64;92.45;101837.27;105533;1252;69145;-56
2023/09/04 06:34:18;;;;;;;4.60;2.40;;;;;;;15.72;92.28;101841.40;105764;1256;75514;-56
2023/09/04 06:36:45;;;;;;;5.70;2.60;;;;;;;15.80;92.01;101837.41;105642;1257;83126;-56
2023/09/04 06:39:12;;;;;;;3.70;2.10;;;;;;;15.89;91.95;101836.05;105581;1254;72550;-55
2023/09/04 06:41:38;;;;;;;2.10;1.60;;;;;;;15.97;91.79;101837.85;105577;1253;69058;-57
2023/09/04 06:44:06;;;;;;;11.10;2.30;;;;;;;16.05;91.44;101834.55;105588;1256;69128;-56
2023/09/04 06:46:33;;;;;;;2.90;2.10;;;;;;;16.13;91.24;101832.33;105584;1254;73762;-57
2023/09/04 06:49:00;;;;;;;3.30;2.10;;;;;;;16.21;91.07;101835.55;105570;1255;83760;-56
2023/09/04 06:51:28;;;;;;;4.70;2.10;;;;;;;16.30;90.94;101830.64;105427;1254;73497;-53
2023/09/04 06:53:56;;;;;;;3.40;1.60;;;;;;;16.37;90.60;101827.86;105576;1256;69182;-54
2023/09/04 06:56:22;;;;;;;3.20;2.10;;;;;;;16.44;90.42;101832.02;105565;1255;69198;-55
2023/09/04 06:58:49;;;;;;;2.70;1.70;;;;;;;16.52;90.13;101834.89;105619;1256;75607;-55
2023/09/04 07:01:16;;;;;;;3.70;1.90;;;;;;;16.59;89.88;101840.27;105599;1255;83357;-54
2023/09/04 07:03:44;;;;;;;2.00;1.50;;;;;;;16.64;89.56;101834.96;105514;1255;73603;-54
2023/09/04 07:06:10;;;;;;;3.60;2.10;;;;;;;16.70;89.33;101842.85;106379;1256;69761;-54
2023/09/04 07:08:37;;;;;;;4.20;2.10;;;;;;;16.77;89.21;101844.17;105186;1260;69129;-57
2023/09/04 07:11:04;;;;;;;3.80;1.80;;;;;;;16.85;89.25;101848.09;105207;1260;74694;-57
2023/09/04 07:13:31;;;;;;;4.10;1.70;;;;;;;16.97;89.10;101849.73;105114;1260;82701;-57
2023/09/04 07:15:58;;;;;;;4.20;1.80;;;;;;;17.08;88.83;101851.39;105076;1260;72526;-57
2023/09/04 07:18:25;;;;;;;3.70;2.00;;;;;;;17.20;88.62;101851.95;105141;1261;69175;-57
2023/09/04 07:20:52;;;;;;;3.80;1.70;;;;;;;17.27;88.25;101850.45;105156;1262;69526;-57
2023/09/04 07:23:20;;;;;;;3.30;1.70;;;;;;;17.30;87.93;101850.30;105093;1260;74577;-57
2023/09/04 07:25:56;;;;;;;4.40;1.70;;;;;;;17.35;87.71;101852.73;105098;1261;83350;-58
2023/09/04 07:28:23;;;;;;;2.40;1.80;;;;;;;17.38;87.30;101851.22;105092;1262;73001;-58
2023/09/04 07:31:04;;;;;;;4.80;1.70;;;;;;;17.38;87.07;101849.77;105052;1262;69186;-58
2023/09/04 07:33:31;;;;;;;3.40;1.80;;;;;;;17.44;87.20;101851.32;105081;1262;69201;-58
2023/09/04 07:35:59;;;;;;;3.30;1.90;;;;;;;17.49;87.00;101851.63;105096;1260;74516;-57
2023/09/04 07:38:26;;;;;;;3.10;2.00;;;;;;;17.53;86.85;101850.21;105150;1260;82416;-58
2023/09/04 07:41:00;;;;;;;3.10;1.50;;;;;;;17.56;86.54;101852.02;105118;1257;73906;-58
2023/09/04 07:43:30;;;;;;;5.60;1.90;;;;;;;17.61;86.44;101856.05;105103;1261;69072;-58
2023/09/04 07:45:57;;;;;;;2.60;1.50;;;;;;;17.64;86.23;101854.70;105118;1262;69208;-57
2023/09/04 07:48:24;;;;;;;3.10;1.50;;;;;;;17.69;86.36;101852.54;105127;1258;74662;-57
2023/09/04 07:50:54;;;;;;;3.40;1.80;;;;;;;17.76;86.21;101851.36;105109;1261;83299;-57
2023/09/04 07:53:21;;;;;;;2.60;1.80;;;;;;;17.83;86.25;101853.36;105128;1258;73843;-57
2023/09/04 07:55:49;;;;;;;2.40;1.50;;;;;;;17.93;86.36;101857.02;105183;1259;69078;-58
2023/09/04 07:58:21;;;;;;;3.50;1.90;;;;;;;18.05;86.19;101862.99;104896;1260;316797;-57
2023/09/04 08:00:50;;;;;;;4.10;1.60;;;;;;;18.14;85.99;101865.59;105131;1260;75609;-57
2023/09/04 08:03:18;;;;;;;2.30;1.30;;;;;;;18.22;85.75;101861.48;105088;1260;83391;-57
2023/09/04 08:05:46;;;;;;;2.10;1.10;;;;;;;18.34;85.65;101868.21;105206;1261;73528;-57
2023/09/04 08:08:13;;;;;;;3.10;1.40;;;;;;;18.46;85.61;101868.56;105237;1260;69188;-56
2023/09/04 08:10:43;;;;;;;2.20;1.20;;;;;;;18.57;85.42;101869.98;105096;1260;69137;-57
2023/09/04 08:13:11;;;;;;;;;;;;;;;18.65;84.93;101871.02;108946;1256;75950;-57
2023/09/04 08:15:41;;;;;;;3.00;1.40;;;;;;;18.71;84.62;101869.33;107243;1260;83217;-56
2023/09/04 08:18:08;;;;;;;3.60;1.30;;;;;;;18.81;84.88;101862.86;105227;1260;73767;-59
2023/09/04 08:20:36;;;;;;;2.80;1.40;;;;;;;18.93;84.73;101863.13;105119;1262;69093;-57
2023/09/04 08:23:04;;;;;;;5.20;1.30;;;;;;;19.05;84.34;101867.33;105228;1262;69193;-58
2023/09/04 08:25:31;;;;;;;3.60;1.50;;;;;;;19.15;84.01;101864.21;105178;1260;75616;-57
2023/09/04 08:28:02;;;;;;;4.00;1.40;;;;;;;19.24;83.91;101864.80;105131;1260;83662;-56
2023/09/04 08:30:30;;;;;;;2.60;1.40;;;;;;;19.35;83.81;101867.08;105206;1262;72866;-57
2023/09/04 08:32:57;;;;;;;5.30;1.50;;;;;;;19.42;83.26;101870.27;105204;1261;69314;-57
2023/09/04 08:35:29;;;;;;;3.10;1.50;;;;;;;19.48;82.92;101868.20;105185;1260;69129;-58
2023/09/04 08:37:57;;;;;;;3.10;1.70;;;;;;;19.58;82.85;101870.54;105167;1260;73637;-58
2023/09/04 08:40:24;;;;;;;4.20;1.70;;;;;;;19.70;82.46;101868.54;105222;1261;83289;-59
2023/09/04 08:42:51;;;;;;;2.90;1.80;;;;;;;19.80;82.19;101869.42;105249;1262;72644;-58
2023/09/04 08:45:19;;;;;;;3.20;1.70;;;;;;;19.87;81.98;101869.77;105121;1262;69128;-58
2023/09/04 08:47:46;;;;;;;4.10;2.00;;;;;;;20.03;82.01;101868.19;105202;1262;69245;-59
2023/09/04 08:50:14;;;;;;;3.40;1.80;;;;;;;20.23;81.90;101865.71;105267;1257;76002;-59
2023/09/04 08:52:41;;;;;;;2.90;1.90;;;;;;;20.41;81.60;101868.44;105162;1262;83510;-58
2023/09/04 08:55:08;;;;;;;5.10;2.00;;;;;;;20.51;81.23;101869.66;105159;1260;72881;-58
2023/09/04 08:57:35;;;;;;;3.30;1.80;;;;;;;20.51;80.24;101870.02;105182;1262;69165;-58
2023/09/04 09:00:03;;;;;;;4.20;1.80;;;;;;;20.52;79.86;101868.92;105168;1260;69158;-58
2023/09/04 09:02:30;;;;;;;3.50;1.90;;;;;;;20.51;79.39;101868.25;105249;1257;75771;-59
2023/09/04 09:04:57;;;;;;;4.00;1.80;;;;;;;20.51;79.01;101865.21;105224;1260;83258;-58
2023/09/04 09:07:27;;;;;;;2.40;1.50;;;;;;;20.59;79.06;101861.77;105160;1257;72677;-58
2023/09/04 09:09:55;;;;;;;2.80;1.80;;;;;;;20.68;78.94;101868.75;105199;1260;69167;-58
2023/09/04 09:12:23;;;;;;;2.50;1.80;;;;;;;20.72;78.66;101870.65;105213;1257;69211;-58
2023/09/04 09:14:50;;;;;;;4.90;1.50;;;;;;;20.76;78.39;101872.43;105167;1256;75514;-58
2023/09/04 09:17:18;;;;;;;2.80;1.30;;;;;;;20.76;77.87;101869.40;105201;1262;83275;-58
2023/09/04 09:19:45;;;;;;;4.90;2.20;;;;;;;20.71;77.59;101871.39;105206;1257;73953;-58
2023/09/04 09:22:21;;;;;;;4.70;1.70;;;;;;;20.75;77.52;101872.63;105153;1260;69117;-58
2023/09/04 09:24:59;;;;;;;3.60;1.60;;;;;;;20.83;77.11;101872.52;105258;1257;69083;-58
2023/09/04 09:27:31;;;;;;;2.20;1.30;;;;;;;20.97;76.78;101867.30;105261;1256;75679;-58
2023/09/04 09:30:00;;;;;;;5.30;1.20;;;;;;;21.15;76.64;101866.79;105243;1260;83249;-58
2023/09/04 09:32:29;;;;;;;2.70;1.30;;;;;;;21.36;76.41;101863.77;105226;1257;73611;-58
2023/09/04 09:34:59;;;;;;;2.20;1.40;;;;;;;21.60;75.88;101860.38;105202;1260;69596;-58
2023/09/04 09:37:29;;;;;;;2.90;1.20;;;;;;;21.75;75.25;101858.05;105222;1256;69062;-58
2023/09/04 09:39:56;;;;;;;2.70;1.50;;;;;;;21.75;74.91;101858.60;105242;1262;75988;-58
2023/09/04 09:42:26;;;;;;;2.40;1.50;;;;;;;21.73;74.25;101859.47;105221;1261;82236;-58
2023/09/04 09:44:53;;;;;;;4.40;1.10;;;;;;;21.69;73.99;101856.84;105197;1256;75291;-58
2023/09/04 09:47:21;;;;;;;2.20;1.10;;;;;;;21.77;73.99;101853.31;105193;1260;69099;-58
2023/09/04 09:49:48;;;;;;;2.10;1.10;;;;;;;21.85;73.52;101849.48;105293;1260;69192;-58
2023/09/04 09:52:16;;;;;;;4.00;1.30;;;;;;;21.97;72.79;101845.87;105189;1262;74572;-58
2023/09/04 09:54:45;;;;;;;4.80;1.20;;;;;;;22.16;72.48;101835.46;105197;1260;83344;-59
2023/09/04 09:57:13;;;;;;;;;;;;;;;22.46;73.04;101833.17;105197;1257;72706;-59
2023/09/04 09:59:50;;;;;;;2.00;1.20;;;;;;;22.82;72.71;101836.93;105197;1261;69133;-58
2023/09/04 10:02:21;;;;;;;2.00;1.10;;;;;;;23.12;71.53;101836.55;105260;1260;69189;-58
2023/09/04 10:04:49;;;;;;;2.70;1.30;;;;;;;23.39;70.61;101839.22;105181;1262;74692;-58
2023/09/04 10:07:21;;;;;;;3.60;1.10;;;;;;;23.65;70.16;101840.60;105257;1263;83327;-58
2023/09/04 10:10:12;;;;;;;2.80;1.10;;;;;;;23.91;69.29;101844.91;105159;1262;73865;-58
2023/09/04 10:12:49;;;;;;;4.70;1.30;;;;;;;24.13;68.98;101850.11;105161;1260;69308;-59
2023/09/04 10:15:34;;;;;;;2.90;1.40;;;;;;;24.30;68.04;101850.30;105140;1262;69157;-58
2023/09/04 10:18:05;;;;;;;3.10;1.10;;;;;;;24.14;66.85;101850.55;105108;1261;74480;-58
2023/09/04 10:20:36;;;;;;;2.70;1.30;;;;;;;24.20;66.64;101845.83;105229;1263;82523;-59
2023/09/04 10:23:10;;;;;;;2.40;1.30;;;;;;;24.40;66.64;101842.33;105197;1260;73511;-58
2023/09/04 10:25:53;;;;;;;2.20;1.10;;;;;;;24.68;66.68;101836.14;105145;1258;69199;-58
2023/09/04 10:28:35;;;;;;;2.00;1.20;;;;;;;24.81;65.74;101832.89;105205;1262;69129;-58
2023/09/04 10:31:12;;;;;;;2.10;1.10;;;;;;;24.89;65.14;101836.52;105215;1260;75638;-58
2023/09/04 10:33:40;;;;;;;3.40;1.20;;;;;;;25.13;65.14;101835.70;105195;1262;83443;-58
2023/09/04 10:36:07;;;;;;;2.10;0.90;;;;;;;25.45;64.12;101836.25;105162;1260;73647;-58
2023/09/04 10:38:36;;;;;;;3.00;1.10;;;;;;;25.79;62.92;101834.90;105179;1262;69135;-60
2023/09/04 10:41:07;;;;;;;2.70;1.30;;;;;;;25.99;61.65;101832.02;105263;1260;69310;-59
2023/09/04 10:43:41;;;;;;;2.70;1.20;;;;;;;26.24;61.59;101824.48;105164;1261;74728;-59
2023/09/04 10:46:10;;;;;;;2.80;1.10;;;;;;;26.64;61.26;101823.94;105217;1261;83417;-59
2023/09/04 10:48:49;;;;;;;1.10;1.00;;;;;;;27.10;61.20;101823.70;105220;1260;72731;-59
2023/09/04 10:51:33;;;;;;;2.80;1.10;;;;;;;27.20;58.94;101830.94;105198;1258;69180;-59
2023/09/04 10:54:12;;;;;;;5.40;1.40;;;;;;;26.75;57.53;101827.35;105158;1260;69226;-59
2023/09/04 10:56:52;;;;;;;;;;;;;;;26.16;56.91;101831.63;105207;1260;75490;-59
2023/09/04 10:59:19;;;;;;;;;;;;;;;25.76;56.72;101822.19;105182;1261;83656;-58
2023/09/04 11:01:46;;;;;;;2.70;1.20;;;;;;;25.92;57.17;101816.98;105167;1263;72646;-58
2023/09/04 11:04:26;;;;;;;3.10;1.20;;;;;;;26.22;57.19;101812.09;105261;1260;69199;-58
2023/09/04 11:07:21;;;;;;;3.70;1.70;;;;;;;26.50;56.40;101808.38;105229;1263;69173;-58
2023/09/04 11:09:51;;;;;;;1.40;1.10;;;;;;;26.94;55.58;101808.86;105181;1260;74664;-62
2023/09/04 11:12:22;;;;;;;1.10;0.80;;;;;;;27.22;55.17;101804.95;105203;1257;82536;-62
2023/09/04 11:14:54;;;;;;;2.60;1.20;;;;;;;27.50;54.99;101804.20;105171;1260;73537;-62
2023/09/04 11:17:22;;;;;;;2.80;1.20;;;;;;;27.76;54.80;101808.17;105217;1263;69274;-63
2023/09/04 11:19:52;;;;;;;1.80;1.00;;;;;;;27.68;54.26;101811.89;105236;1260;69173;-63
2023/09/04 11:22:21;;;;;;;1.40;1.00;;;;;;;27.19;53.27;101809.46;105165;1261;75908;-62
2023/09/04 11:24:51;;;;;;;2.50;0.80;;;;;;;26.95;53.30;101808.30;105210;1257;82743;-63